<?xml version="1.0" encoding="UTF-8" standalone="no" ?>
<gpx xmlns="http://www.topografix.com/GPX/1/1" xmlns:xsi="http://www.w3.org/2001/XMLSchema-instance" xsi:schemaLocation="http://www.topografix.com/GPX/1/1 http://www.topografix.com/GPX/1/1/gpx.xsd" version="1.1" creator="VisuGPX - https://www.visugpx.com">
  <metadata>
    <name>Bullion projet otsi </name>
    <desc><![CDATA[Départ et arrivée a bonnelles en passant par Bullion]]></desc>
  </metadata>
  <trk>
    <name><![CDATA[Tracé 001]]></name>
    <trkseg>
      <trkpt lat="48.61809" lon="2.02815">
        <ele>121</ele>
        <time>2017-03-18T09:16:15Z</time>
      </trkpt>
      <trkpt lat="48.61901" lon="2.02651">
        <ele>122</ele>
        <time>2017-03-18T09:18:15Z</time>
      </trkpt>
      <trkpt lat="48.6177" lon="2.02419">
        <ele>112</ele>
        <time>2017-03-18T09:20:15Z</time>
      </trkpt>
      <trkpt lat="48.61674" lon="2.02359">
        <ele>113</ele>
        <time>2017-03-18T09:22:15Z</time>
      </trkpt>
      <trkpt lat="48.6154" lon="2.02325">
        <ele>116</ele>
        <time>2017-03-18T09:24:15Z</time>
      </trkpt>
      <trkpt lat="48.6145" lon="2.02273">
        <ele>113</ele>
        <time>2017-03-18T09:26:15Z</time>
      </trkpt>
      <trkpt lat="48.61305" lon="2.02192">
        <ele>111</ele>
        <time>2017-03-18T09:28:15Z</time>
      </trkpt>
      <trkpt lat="48.61248" lon="2.02157">
        <ele>113</ele>
        <time>2017-03-18T09:30:15Z</time>
      </trkpt>
      <trkpt lat="48.61191" lon="2.02063">
        <ele>112</ele>
        <time>2017-03-18T09:32:15Z</time>
      </trkpt>
      <trkpt lat="48.61112" lon="2.02029">
        <ele>110</ele>
        <time>2017-03-18T09:34:15Z</time>
      </trkpt>
      <trkpt lat="48.61174" lon="2.02179">
        <ele>112</ele>
        <time>2017-03-18T09:36:15Z</time>
      </trkpt>
      <trkpt lat="48.61206" lon="2.02299">
        <ele>114</ele>
        <time>2017-03-18T09:38:15Z</time>
      </trkpt>
      <trkpt lat="48.61211" lon="2.02419">
        <ele>115</ele>
        <time>2017-03-18T09:40:15Z</time>
      </trkpt>
      <trkpt lat="48.61217" lon="2.02599">
        <ele>110</ele>
        <time>2017-03-18T09:42:15Z</time>
      </trkpt>
      <trkpt lat="48.61155" lon="2.02604">
        <ele>111</ele>
        <time>2017-03-18T09:44:15Z</time>
      </trkpt>
      <trkpt lat="48.61018" lon="2.02595">
        <ele>107</ele>
        <time>2017-03-18T09:46:15Z</time>
      </trkpt>
      <trkpt lat="48.60936" lon="2.02591">
        <ele>105</ele>
        <time>2017-03-18T09:48:15Z</time>
      </trkpt>
      <trkpt lat="48.60865" lon="2.02531">
        <ele>103</ele>
        <time>2017-03-18T09:50:15Z</time>
      </trkpt>
      <trkpt lat="48.60791" lon="2.02565">
        <ele>109</ele>
        <time>2017-03-18T09:52:15Z</time>
      </trkpt>
      <trkpt lat="48.60718" lon="2.02389">
        <ele>111</ele>
        <time>2017-03-18T09:54:15Z</time>
      </trkpt>
      <trkpt lat="48.60664" lon="2.02269">
        <ele>110</ele>
        <time>2017-03-18T09:56:15Z</time>
      </trkpt>
      <trkpt lat="48.6059" lon="2.02063">
        <ele>115</ele>
        <time>2017-03-18T09:58:15Z</time>
      </trkpt>
      <trkpt lat="48.60533" lon="2.0205">
        <ele>120</ele>
        <time>2017-03-18T10:00:15Z</time>
      </trkpt>
      <trkpt lat="48.60357" lon="2.01844">
        <ele>121</ele>
        <time>2017-03-18T10:02:15Z</time>
      </trkpt>
      <trkpt lat="48.60346" lon="2.0175">
        <ele>115</ele>
        <time>2017-03-18T10:04:15Z</time>
      </trkpt>
      <trkpt lat="48.60272" lon="2.01681">
        <ele>117</ele>
        <time>2017-03-18T10:06:15Z</time>
      </trkpt>
      <trkpt lat="48.60159" lon="2.01578">
        <ele>119</ele>
        <time>2017-03-18T10:08:15Z</time>
      </trkpt>
      <trkpt lat="48.60028" lon="2.01415">
        <ele>119</ele>
        <time>2017-03-18T10:10:15Z</time>
      </trkpt>
      <trkpt lat="48.59934" lon="2.01342">
        <ele>111</ele>
        <time>2017-03-18T10:12:15Z</time>
      </trkpt>
      <trkpt lat="48.59787" lon="2.01355">
        <ele>111</ele>
        <time>2017-03-18T10:14:15Z</time>
      </trkpt>
      <trkpt lat="48.59648" lon="2.01226">
        <ele>101</ele>
        <time>2017-03-18T10:16:15Z</time>
      </trkpt>
      <trkpt lat="48.59608" lon="2.01295">
        <ele>102</ele>
        <time>2017-03-18T10:18:15Z</time>
      </trkpt>
      <trkpt lat="48.59557" lon="2.0132">
        <ele>101</ele>
        <time>2017-03-18T10:20:15Z</time>
      </trkpt>
      <trkpt lat="48.59409" lon="2.01462">
        <ele>97</ele>
        <time>2017-03-18T10:22:15Z</time>
      </trkpt>
      <trkpt lat="48.59338" lon="2.01531">
        <ele>98</ele>
        <time>2017-03-18T10:24:15Z</time>
      </trkpt>
      <trkpt lat="48.59243" lon="2.01621">
        <ele>96</ele>
        <time>2017-03-18T10:26:15Z</time>
      </trkpt>
      <trkpt lat="48.59145" lon="2.01745">
        <ele>100</ele>
        <time>2017-03-18T10:28:15Z</time>
      </trkpt>
      <trkpt lat="48.59094" lon="2.0166">
        <ele>98</ele>
        <time>2017-03-18T10:30:15Z</time>
      </trkpt>
      <trkpt lat="48.59023" lon="2.01557">
        <ele>91</ele>
        <time>2017-03-18T10:32:15Z</time>
      </trkpt>
      <trkpt lat="48.59012" lon="2.01351">
        <ele>89</ele>
        <time>2017-03-18T10:34:15Z</time>
      </trkpt>
      <trkpt lat="48.58947" lon="2.01059">
        <ele>96</ele>
        <time>2017-03-18T10:36:15Z</time>
      </trkpt>
      <trkpt lat="48.58935" lon="2.00788">
        <ele>107</ele>
        <time>2017-03-18T10:38:15Z</time>
      </trkpt>
      <trkpt lat="48.58941" lon="2.00621">
        <ele>105</ele>
        <time>2017-03-18T10:40:15Z</time>
      </trkpt>
      <trkpt lat="48.58921" lon="2.00359">
        <ele>109</ele>
        <time>2017-03-18T10:42:15Z</time>
      </trkpt>
      <trkpt lat="48.5891" lon="2.00153">
        <ele>115</ele>
        <time>2017-03-18T10:44:15Z</time>
      </trkpt>
      <trkpt lat="48.5889" lon="1.99964">
        <ele>119</ele>
        <time>2017-03-18T10:46:15Z</time>
      </trkpt>
      <trkpt lat="48.58873" lon="1.99784">
        <ele>125</ele>
        <time>2017-03-18T10:48:15Z</time>
      </trkpt>
      <trkpt lat="48.58898" lon="1.99552">
        <ele>130</ele>
        <time>2017-03-18T10:50:15Z</time>
      </trkpt>
      <trkpt lat="48.58927" lon="1.99355">
        <ele>126</ele>
        <time>2017-03-18T10:52:15Z</time>
      </trkpt>
      <trkpt lat="48.58924" lon="1.9917">
        <ele>122</ele>
        <time>2017-03-18T10:54:15Z</time>
      </trkpt>
      <trkpt lat="48.58952" lon="1.99059">
        <ele>116</ele>
        <time>2017-03-18T10:56:15Z</time>
      </trkpt>
      <trkpt lat="48.58861" lon="1.98982">
        <ele>113</ele>
        <time>2017-03-18T10:58:15Z</time>
      </trkpt>
      <trkpt lat="48.5881" lon="1.98973">
        <ele>115</ele>
        <time>2017-03-18T11:00:15Z</time>
      </trkpt>
      <trkpt lat="48.58751" lon="1.9893">
        <ele>117</ele>
        <time>2017-03-18T11:02:15Z</time>
      </trkpt>
      <trkpt lat="48.58612" lon="1.98887">
        <ele>119</ele>
        <time>2017-03-18T11:04:15Z</time>
      </trkpt>
      <trkpt lat="48.58555" lon="1.98814">
        <ele>115</ele>
        <time>2017-03-18T11:06:15Z</time>
      </trkpt>
      <trkpt lat="48.58552" lon="1.98716">
        <ele>109</ele>
        <time>2017-03-18T11:08:15Z</time>
      </trkpt>
      <trkpt lat="48.58512" lon="1.98364">
        <ele>108</ele>
        <time>2017-03-18T11:10:15Z</time>
      </trkpt>
      <trkpt lat="48.58549" lon="1.98136">
        <ele>109</ele>
        <time>2017-03-18T11:12:15Z</time>
      </trkpt>
      <trkpt lat="48.5866" lon="1.9787">
        <ele>115</ele>
        <time>2017-03-18T11:14:15Z</time>
      </trkpt>
      <trkpt lat="48.58998" lon="1.98205">
        <ele>119</ele>
        <time>2017-03-18T11:16:15Z</time>
      </trkpt>
      <trkpt lat="48.59114" lon="1.97853">
        <ele>126</ele>
        <time>2017-03-18T11:18:15Z</time>
      </trkpt>
      <trkpt lat="48.59174" lon="1.97737">
        <ele>132</ele>
        <time>2017-03-18T11:20:15Z</time>
      </trkpt>
      <trkpt lat="48.59259" lon="1.97595">
        <ele>139</ele>
        <time>2017-03-18T11:22:15Z</time>
      </trkpt>
      <trkpt lat="48.59372" lon="1.97505">
        <ele>140</ele>
        <time>2017-03-18T11:24:15Z</time>
      </trkpt>
      <trkpt lat="48.59477" lon="1.97415">
        <ele>141</ele>
        <time>2017-03-18T11:26:15Z</time>
      </trkpt>
      <trkpt lat="48.59517" lon="1.97342">
        <ele>143</ele>
        <time>2017-03-18T11:28:15Z</time>
      </trkpt>
      <trkpt lat="48.59662" lon="1.97299">
        <ele>133</ele>
        <time>2017-03-18T11:30:15Z</time>
      </trkpt>
      <trkpt lat="48.59764" lon="1.97218">
        <ele>133</ele>
        <time>2017-03-18T11:32:15Z</time>
      </trkpt>
      <trkpt lat="48.59906" lon="1.97153">
        <ele>137</ele>
        <time>2017-03-18T11:34:15Z</time>
      </trkpt>
      <trkpt lat="48.6" lon="1.97123">
        <ele>144</ele>
        <time>2017-03-18T11:36:15Z</time>
      </trkpt>
      <trkpt lat="48.60065" lon="1.97093">
        <ele>144</ele>
        <time>2017-03-18T11:38:15Z</time>
      </trkpt>
      <trkpt lat="48.60147" lon="1.97055">
        <ele>136</ele>
        <time>2017-03-18T11:40:15Z</time>
      </trkpt>
      <trkpt lat="48.60252" lon="1.97093">
        <ele>127</ele>
        <time>2017-03-18T11:42:15Z</time>
      </trkpt>
      <trkpt lat="48.60323" lon="1.97106">
        <ele>124</ele>
        <time>2017-03-18T11:44:15Z</time>
      </trkpt>
      <trkpt lat="48.60371" lon="1.97166">
        <ele>123</ele>
        <time>2017-03-18T11:46:15Z</time>
      </trkpt>
      <trkpt lat="48.60457" lon="1.97269">
        <ele>121</ele>
        <time>2017-03-18T11:48:15Z</time>
      </trkpt>
      <trkpt lat="48.60547" lon="1.97312">
        <ele>117</ele>
        <time>2017-03-18T11:50:15Z</time>
      </trkpt>
      <trkpt lat="48.60681" lon="1.97475">
        <ele>112</ele>
        <time>2017-03-18T11:52:15Z</time>
      </trkpt>
      <trkpt lat="48.608" lon="1.9745">
        <ele>109</ele>
        <time>2017-03-18T11:54:15Z</time>
      </trkpt>
      <trkpt lat="48.60874" lon="1.97368">
        <ele>108</ele>
        <time>2017-03-18T11:56:15Z</time>
      </trkpt>
      <trkpt lat="48.61004" lon="1.97175">
        <ele>105</ele>
        <time>2017-03-18T11:58:15Z</time>
      </trkpt>
      <trkpt lat="48.61103" lon="1.97119">
        <ele>103</ele>
        <time>2017-03-18T12:00:15Z</time>
      </trkpt>
      <trkpt lat="48.61206" lon="1.97136">
        <ele>103</ele>
        <time>2017-03-18T12:02:15Z</time>
      </trkpt>
      <trkpt lat="48.61265" lon="1.97123">
        <ele>104</ele>
        <time>2017-03-18T12:04:15Z</time>
      </trkpt>
      <trkpt lat="48.61367" lon="1.97136">
        <ele>105</ele>
        <time>2017-03-18T12:06:15Z</time>
      </trkpt>
      <trkpt lat="48.61452" lon="1.97076">
        <ele>105</ele>
        <time>2017-03-18T12:08:15Z</time>
      </trkpt>
      <trkpt lat="48.61557" lon="1.96982">
        <ele>108</ele>
        <time>2017-03-18T12:10:15Z</time>
      </trkpt>
      <trkpt lat="48.61694" lon="1.96982">
        <ele>117</ele>
        <time>2017-03-18T12:12:15Z</time>
      </trkpt>
      <trkpt lat="48.6177" lon="1.96986">
        <ele>120</ele>
        <time>2017-03-18T12:14:15Z</time>
      </trkpt>
      <trkpt lat="48.61912" lon="1.97085">
        <ele>123</ele>
        <time>2017-03-18T12:16:15Z</time>
      </trkpt>
      <trkpt lat="48.62051" lon="1.97033">
        <ele>128</ele>
        <time>2017-03-18T12:18:15Z</time>
      </trkpt>
      <trkpt lat="48.62159" lon="1.96982">
        <ele>131</ele>
        <time>2017-03-18T12:20:15Z</time>
      </trkpt>
      <trkpt lat="48.62235" lon="1.97012">
        <ele>132</ele>
        <time>2017-03-18T12:22:15Z</time>
      </trkpt>
      <trkpt lat="48.6236" lon="1.97115">
        <ele>145</ele>
        <time>2017-03-18T12:24:15Z</time>
      </trkpt>
      <trkpt lat="48.62477" lon="1.9708">
        <ele>148</ele>
        <time>2017-03-18T12:26:15Z</time>
      </trkpt>
      <trkpt lat="48.62672" lon="1.97145">
        <ele>149</ele>
        <time>2017-03-18T12:28:15Z</time>
      </trkpt>
      <trkpt lat="48.62769" lon="1.97145">
        <ele>142</ele>
        <time>2017-03-18T12:30:15Z</time>
      </trkpt>
      <trkpt lat="48.6284" lon="1.97192">
        <ele>137</ele>
        <time>2017-03-18T12:32:15Z</time>
      </trkpt>
      <trkpt lat="48.62896" lon="1.97183">
        <ele>134</ele>
        <time>2017-03-18T12:34:15Z</time>
      </trkpt>
      <trkpt lat="48.62959" lon="1.97171">
        <ele>128</ele>
        <time>2017-03-18T12:36:15Z</time>
      </trkpt>
      <trkpt lat="48.6301" lon="1.97179">
        <ele>124</ele>
        <time>2017-03-18T12:38:15Z</time>
      </trkpt>
      <trkpt lat="48.63041" lon="1.97115">
        <ele>120</ele>
        <time>2017-03-18T12:40:15Z</time>
      </trkpt>
      <trkpt lat="48.63069" lon="1.97265">
        <ele>120</ele>
        <time>2017-03-18T12:42:15Z</time>
      </trkpt>
      <trkpt lat="48.63038" lon="1.97325">
        <ele>123</ele>
        <time>2017-03-18T12:44:15Z</time>
      </trkpt>
      <trkpt lat="48.62967" lon="1.97428">
        <ele>124</ele>
        <time>2017-03-18T12:46:15Z</time>
      </trkpt>
      <trkpt lat="48.6293" lon="1.97754">
        <ele>127</ele>
        <time>2017-03-18T12:48:15Z</time>
      </trkpt>
      <trkpt lat="48.62891" lon="1.98037">
        <ele>121</ele>
        <time>2017-03-18T12:50:15Z</time>
      </trkpt>
      <trkpt lat="48.62953" lon="1.9805">
        <ele>120</ele>
        <time>2017-03-18T12:52:15Z</time>
      </trkpt>
      <trkpt lat="48.62996" lon="1.98145">
        <ele>120</ele>
        <time>2017-03-18T12:54:15Z</time>
      </trkpt>
      <trkpt lat="48.6302" lon="1.98336">
        <ele>114</ele>
        <time>2017-03-18T12:56:15Z</time>
      </trkpt>
      <trkpt lat="48.63027" lon="1.98535">
        <ele>112</ele>
        <time>2017-03-18T12:58:15Z</time>
      </trkpt>
      <trkpt lat="48.62959" lon="1.9875">
        <ele>107</ele>
        <time>2017-03-18T13:00:15Z</time>
      </trkpt>
      <trkpt lat="48.62898" lon="1.9887">
        <ele>110</ele>
        <time>2017-03-18T13:02:15Z</time>
      </trkpt>
      <trkpt lat="48.62953" lon="1.98939">
        <ele>110</ele>
        <time>2017-03-18T13:04:15Z</time>
      </trkpt>
      <trkpt lat="48.63146" lon="1.99046">
        <ele>119</ele>
        <time>2017-03-18T13:06:15Z</time>
      </trkpt>
      <trkpt lat="48.63109" lon="1.99179">
        <ele>125</ele>
        <time>2017-03-18T13:08:15Z</time>
      </trkpt>
      <trkpt lat="48.63058" lon="1.99308">
        <ele>123</ele>
        <time>2017-03-18T13:10:15Z</time>
      </trkpt>
      <trkpt lat="48.62996" lon="1.99471">
        <ele>120</ele>
        <time>2017-03-18T13:12:15Z</time>
      </trkpt>
      <trkpt lat="48.62942" lon="1.99552">
        <ele>121</ele>
        <time>2017-03-18T13:14:15Z</time>
      </trkpt>
      <trkpt lat="48.62749" lon="1.9954">
        <ele>128</ele>
        <time>2017-03-18T13:16:15Z</time>
      </trkpt>
      <trkpt lat="48.62542" lon="1.99552">
        <ele>118</ele>
        <time>2017-03-18T13:18:15Z</time>
      </trkpt>
      <trkpt lat="48.62386" lon="1.99561">
        <ele>109</ele>
        <time>2017-03-18T13:20:15Z</time>
      </trkpt>
      <trkpt lat="48.62309" lon="1.99668">
        <ele>110</ele>
        <time>2017-03-18T13:22:15Z</time>
      </trkpt>
      <trkpt lat="48.62196" lon="1.99784">
        <ele>115</ele>
        <time>2017-03-18T13:24:15Z</time>
      </trkpt>
      <trkpt lat="48.62318" lon="2.002">
        <ele>126</ele>
        <time>2017-03-18T13:26:15Z</time>
      </trkpt>
      <trkpt lat="48.62356" lon="2.00267">
        <ele>127</ele>
        <time>2017-03-18T13:28:15Z</time>
      </trkpt>
      <trkpt lat="48.62372" lon="2.00331">
        <ele>128</ele>
        <time>2017-03-18T13:30:15Z</time>
      </trkpt>
      <trkpt lat="48.6239" lon="2.00394">
        <ele>129</ele>
        <time>2017-03-18T13:32:15Z</time>
      </trkpt>
      <trkpt lat="48.62406" lon="2.00424">
        <ele>129</ele>
        <time>2017-03-18T13:34:15Z</time>
      </trkpt>
      <trkpt lat="48.62406" lon="2.00432">
        <ele>129</ele>
        <time>2017-03-18T13:36:15Z</time>
      </trkpt>
      <trkpt lat="48.62416" lon="2.00555">
        <ele>127</ele>
        <time>2017-03-18T13:38:15Z</time>
      </trkpt>
      <trkpt lat="48.62421" lon="2.00698">
        <ele>123</ele>
        <time>2017-03-18T13:40:15Z</time>
      </trkpt>
      <trkpt lat="48.62431" lon="2.00872">
        <ele>132</ele>
        <time>2017-03-18T13:42:15Z</time>
      </trkpt>
      <trkpt lat="48.62485" lon="2.01063">
        <ele>143</ele>
        <time>2017-03-18T13:44:15Z</time>
      </trkpt>
      <trkpt lat="48.62556" lon="2.01303">
        <ele>144</ele>
        <time>2017-03-18T13:46:15Z</time>
      </trkpt>
      <trkpt lat="48.62485" lon="2.01419">
        <ele>143</ele>
        <time>2017-03-18T13:48:15Z</time>
      </trkpt>
      <trkpt lat="48.62423" lon="2.01621">
        <ele>139</ele>
        <time>2017-03-18T13:50:15Z</time>
      </trkpt>
      <trkpt lat="48.62369" lon="2.01745">
        <ele>131</ele>
        <time>2017-03-18T13:52:15Z</time>
      </trkpt>
      <trkpt lat="48.62309" lon="2.0175">
        <ele>130</ele>
        <time>2017-03-18T13:54:15Z</time>
      </trkpt>
      <trkpt lat="48.62238" lon="2.01642">
        <ele>128</ele>
        <time>2017-03-18T13:56:15Z</time>
      </trkpt>
      <trkpt lat="48.62221" lon="2.01891">
        <ele>127</ele>
        <time>2017-03-18T13:58:15Z</time>
      </trkpt>
      <trkpt lat="48.62199" lon="2.0217">
        <ele>123</ele>
        <time>2017-03-18T14:00:15Z</time>
      </trkpt>
      <trkpt lat="48.6221" lon="2.02376">
        <ele>125</ele>
        <time>2017-03-18T14:02:15Z</time>
      </trkpt>
      <trkpt lat="48.62235" lon="2.02582">
        <ele>129</ele>
        <time>2017-03-18T14:04:15Z</time>
      </trkpt>
      <trkpt lat="48.62196" lon="2.02758">
        <ele>130</ele>
        <time>2017-03-18T14:06:15Z</time>
      </trkpt>
      <trkpt lat="48.62145" lon="2.02715">
        <ele>128</ele>
        <time>2017-03-18T14:08:15Z</time>
      </trkpt>
      <trkpt lat="48.62051" lon="2.02672">
        <ele>125</ele>
        <time>2017-03-18T14:10:15Z</time>
      </trkpt>
      <trkpt lat="48.61946" lon="2.02642">
        <ele>123</ele>
        <time>2017-03-18T14:12:15Z</time>
      </trkpt>
      <trkpt lat="48.61895" lon="2.02681">
        <ele>122</ele>
        <time>2017-03-18T14:14:15Z</time>
      </trkpt>
      <trkpt lat="48.61861" lon="2.02861">
        <ele>122</ele>
        <time>2017-03-18T14:16:15Z</time>
      </trkpt>
    </trkseg>
  </trk>
</gpx>